<?xml version="1.0" encoding="UTF-8" standalone="no" ?>
<gpx xmlns="http://www.topografix.com/GPX/1/1" xmlns:xsi="http://www.w3.org/2001/XMLSchema-instance" xsi:schemaLocation="http://www.topografix.com/GPX/1/1 http://www.topografix.com/GPX/1/1/gpx.xsd" version="1.1" creator="VisuGPX - https://www.visugpx.com">
  <metadata>
    <name>Col du Gibet St Félicien Ardèche</name>
    <desc><![CDATA[Col du Gibet St Félicien Ardèche 8 Août 2018]]></desc>
  </metadata>
  <trk>
    <name><![CDATA[2018-08-08 18:54:25]]></name>
    <trkseg>
      <trkpt lat="45.08817" lon="4.59652">
        <ele>588.46</ele>
        <time>2018-08-08T14:33:03Z</time>
      </trkpt>
      <trkpt lat="45.08819" lon="4.59672">
        <ele>589.91</ele>
        <time>2018-08-08T14:33:23Z</time>
      </trkpt>
      <trkpt lat="45.08827" lon="4.59692">
        <ele>591.83</ele>
        <time>2018-08-08T14:33:42Z</time>
      </trkpt>
      <trkpt lat="45.08833" lon="4.59707">
        <ele>592.79</ele>
        <time>2018-08-08T14:33:59Z</time>
      </trkpt>
      <trkpt lat="45.08841" lon="4.59719">
        <ele>595.19</ele>
        <time>2018-08-08T14:34:15Z</time>
      </trkpt>
      <trkpt lat="45.08851" lon="4.59731">
        <ele>596.64</ele>
        <time>2018-08-08T14:34:32Z</time>
      </trkpt>
      <trkpt lat="45.08864" lon="4.5974">
        <ele>598.08</ele>
        <time>2018-08-08T14:34:51Z</time>
      </trkpt>
      <trkpt lat="45.08876" lon="4.59741">
        <ele>600</ele>
        <time>2018-08-08T14:35:08Z</time>
      </trkpt>
      <trkpt lat="45.08886" lon="4.59739">
        <ele>600.96</ele>
        <time>2018-08-08T14:35:25Z</time>
      </trkpt>
      <trkpt lat="45.08885" lon="4.59743">
        <ele>600.48</ele>
        <time>2018-08-08T14:35:56Z</time>
      </trkpt>
      <trkpt lat="45.08885" lon="4.59744">
        <ele>600.48</ele>
        <time>2018-08-08T14:36:01Z</time>
      </trkpt>
      <trkpt lat="45.08887" lon="4.59745">
        <ele>599.52</ele>
        <time>2018-08-08T14:36:14Z</time>
      </trkpt>
      <trkpt lat="45.08896" lon="4.59743">
        <ele>599.04</ele>
        <time>2018-08-08T14:36:29Z</time>
      </trkpt>
      <trkpt lat="45.0891" lon="4.59742">
        <ele>597.12</ele>
        <time>2018-08-08T14:36:46Z</time>
      </trkpt>
      <trkpt lat="45.08925" lon="4.59741">
        <ele>596.64</ele>
        <time>2018-08-08T14:37:02Z</time>
      </trkpt>
      <trkpt lat="45.08938" lon="4.59738">
        <ele>595.67</ele>
        <time>2018-08-08T14:37:18Z</time>
      </trkpt>
      <trkpt lat="45.08954" lon="4.59735">
        <ele>595.19</ele>
        <time>2018-08-08T14:37:36Z</time>
      </trkpt>
      <trkpt lat="45.08972" lon="4.59733">
        <ele>594.71</ele>
        <time>2018-08-08T14:37:55Z</time>
      </trkpt>
      <trkpt lat="45.08989" lon="4.59735">
        <ele>594.71</ele>
        <time>2018-08-08T14:38:11Z</time>
      </trkpt>
      <trkpt lat="45.09004" lon="4.59734">
        <ele>596.64</ele>
        <time>2018-08-08T14:38:27Z</time>
      </trkpt>
      <trkpt lat="45.09012" lon="4.59733">
        <ele>596.64</ele>
        <time>2018-08-08T14:38:36Z</time>
      </trkpt>
      <trkpt lat="45.09022" lon="4.59733">
        <ele>597.12</ele>
        <time>2018-08-08T14:38:49Z</time>
      </trkpt>
      <trkpt lat="45.09034" lon="4.59734">
        <ele>597.12</ele>
        <time>2018-08-08T14:39:05Z</time>
      </trkpt>
      <trkpt lat="45.09039" lon="4.59736">
        <ele>597.12</ele>
        <time>2018-08-08T14:39:11Z</time>
      </trkpt>
      <trkpt lat="45.09055" lon="4.59742">
        <ele>597.6</ele>
        <time>2018-08-08T14:39:27Z</time>
      </trkpt>
      <trkpt lat="45.0907" lon="4.5975">
        <ele>597.6</ele>
        <time>2018-08-08T14:39:43Z</time>
      </trkpt>
      <trkpt lat="45.09075" lon="4.59753">
        <ele>597.6</ele>
        <time>2018-08-08T14:39:48Z</time>
      </trkpt>
      <trkpt lat="45.09092" lon="4.59766">
        <ele>597.6</ele>
        <time>2018-08-08T14:40:05Z</time>
      </trkpt>
      <trkpt lat="45.09095" lon="4.59768">
        <ele>596.15</ele>
        <time>2018-08-08T14:40:08Z</time>
      </trkpt>
      <trkpt lat="45.09104" lon="4.59784">
        <ele>596.15</ele>
        <time>2018-08-08T14:40:20Z</time>
      </trkpt>
      <trkpt lat="45.09104" lon="4.59795">
        <ele>596.15</ele>
        <time>2018-08-08T14:40:30Z</time>
      </trkpt>
      <trkpt lat="45.09095" lon="4.59808">
        <ele>596.15</ele>
        <time>2018-08-08T14:40:48Z</time>
      </trkpt>
      <trkpt lat="45.0908" lon="4.59819">
        <ele>598.56</ele>
        <time>2018-08-08T14:41:08Z</time>
      </trkpt>
      <trkpt lat="45.09067" lon="4.59827">
        <ele>600.48</ele>
        <time>2018-08-08T14:41:23Z</time>
      </trkpt>
      <trkpt lat="45.09055" lon="4.5984">
        <ele>601.92</ele>
        <time>2018-08-08T14:41:42Z</time>
      </trkpt>
      <trkpt lat="45.09049" lon="4.59841">
        <ele>602.4</ele>
        <time>2018-08-08T14:42:02Z</time>
      </trkpt>
      <trkpt lat="45.09044" lon="4.59847">
        <ele>603.36</ele>
        <time>2018-08-08T14:42:32Z</time>
      </trkpt>
      <trkpt lat="45.09034" lon="4.59861">
        <ele>605.77</ele>
        <time>2018-08-08T14:42:50Z</time>
      </trkpt>
      <trkpt lat="45.09027" lon="4.59875">
        <ele>607.69</ele>
        <time>2018-08-08T14:43:08Z</time>
      </trkpt>
      <trkpt lat="45.09028" lon="4.5989">
        <ele>609.61</ele>
        <time>2018-08-08T14:43:24Z</time>
      </trkpt>
      <trkpt lat="45.0903" lon="4.59906">
        <ele>608.17</ele>
        <time>2018-08-08T14:43:37Z</time>
      </trkpt>
      <trkpt lat="45.09034" lon="4.59919">
        <ele>611.54</ele>
        <time>2018-08-08T14:43:50Z</time>
      </trkpt>
      <trkpt lat="45.09036" lon="4.59929">
        <ele>612.5</ele>
        <time>2018-08-08T14:44:04Z</time>
      </trkpt>
      <trkpt lat="45.09045" lon="4.59939">
        <ele>614.42</ele>
        <time>2018-08-08T14:44:19Z</time>
      </trkpt>
      <trkpt lat="45.09051" lon="4.59953">
        <ele>615.86</ele>
        <time>2018-08-08T14:44:36Z</time>
      </trkpt>
      <trkpt lat="45.09058" lon="4.59968">
        <ele>616.82</ele>
        <time>2018-08-08T14:44:51Z</time>
      </trkpt>
      <trkpt lat="45.09066" lon="4.59988">
        <ele>618.26</ele>
        <time>2018-08-08T14:45:09Z</time>
      </trkpt>
      <trkpt lat="45.09073" lon="4.60008">
        <ele>619.23</ele>
        <time>2018-08-08T14:45:27Z</time>
      </trkpt>
      <trkpt lat="45.09073" lon="4.60009">
        <ele>620.19</ele>
        <time>2018-08-08T14:45:29Z</time>
      </trkpt>
      <trkpt lat="45.09077" lon="4.60034">
        <ele>620.67</ele>
        <time>2018-08-08T14:45:50Z</time>
      </trkpt>
      <trkpt lat="45.09077" lon="4.60054">
        <ele>623.07</ele>
        <time>2018-08-08T14:46:09Z</time>
      </trkpt>
      <trkpt lat="45.09082" lon="4.60067">
        <ele>624.99</ele>
        <time>2018-08-08T14:46:26Z</time>
      </trkpt>
      <trkpt lat="45.09088" lon="4.60072">
        <ele>625.96</ele>
        <time>2018-08-08T14:46:41Z</time>
      </trkpt>
      <trkpt lat="45.0909" lon="4.60062">
        <ele>627.88</ele>
        <time>2018-08-08T14:46:56Z</time>
      </trkpt>
      <trkpt lat="45.09089" lon="4.60054">
        <ele>628.84</ele>
        <time>2018-08-08T14:47:06Z</time>
      </trkpt>
      <trkpt lat="45.09089" lon="4.60034">
        <ele>631.72</ele>
        <time>2018-08-08T14:47:24Z</time>
      </trkpt>
      <trkpt lat="45.09092" lon="4.60019">
        <ele>633.17</ele>
        <time>2018-08-08T14:47:38Z</time>
      </trkpt>
      <trkpt lat="45.09099" lon="4.60003">
        <ele>635.09</ele>
        <time>2018-08-08T14:47:55Z</time>
      </trkpt>
      <trkpt lat="45.09111" lon="4.59988">
        <ele>636.53</ele>
        <time>2018-08-08T14:48:12Z</time>
      </trkpt>
      <trkpt lat="45.09122" lon="4.5998">
        <ele>638.45</ele>
        <time>2018-08-08T14:48:29Z</time>
      </trkpt>
      <trkpt lat="45.09135" lon="4.59976">
        <ele>640.86</ele>
        <time>2018-08-08T14:48:47Z</time>
      </trkpt>
      <trkpt lat="45.09149" lon="4.59974">
        <ele>643.26</ele>
        <time>2018-08-08T14:49:04Z</time>
      </trkpt>
      <trkpt lat="45.09163" lon="4.59979">
        <ele>645.18</ele>
        <time>2018-08-08T14:49:21Z</time>
      </trkpt>
      <trkpt lat="45.09169" lon="4.59996">
        <ele>646.62</ele>
        <time>2018-08-08T14:49:36Z</time>
      </trkpt>
      <trkpt lat="45.09167" lon="4.60019">
        <ele>649.03</ele>
        <time>2018-08-08T14:49:56Z</time>
      </trkpt>
      <trkpt lat="45.09163" lon="4.60038">
        <ele>650.47</ele>
        <time>2018-08-08T14:50:11Z</time>
      </trkpt>
      <trkpt lat="45.09153" lon="4.6006">
        <ele>651.43</ele>
        <time>2018-08-08T14:50:28Z</time>
      </trkpt>
      <trkpt lat="45.09151" lon="4.6007">
        <ele>651.91</ele>
        <time>2018-08-08T14:50:36Z</time>
      </trkpt>
      <trkpt lat="45.0915" lon="4.60094">
        <ele>652.39</ele>
        <time>2018-08-08T14:50:53Z</time>
      </trkpt>
      <trkpt lat="45.0915" lon="4.60102">
        <ele>652.39</ele>
        <time>2018-08-08T14:50:59Z</time>
      </trkpt>
      <trkpt lat="45.09151" lon="4.60122">
        <ele>653.35</ele>
        <time>2018-08-08T14:51:15Z</time>
      </trkpt>
      <trkpt lat="45.09154" lon="4.60128">
        <ele>654.31</ele>
        <time>2018-08-08T14:51:21Z</time>
      </trkpt>
      <trkpt lat="45.09162" lon="4.60139">
        <ele>654.31</ele>
        <time>2018-08-08T14:51:35Z</time>
      </trkpt>
      <trkpt lat="45.0917" lon="4.60151">
        <ele>657.2</ele>
        <time>2018-08-08T14:51:51Z</time>
      </trkpt>
      <trkpt lat="45.09178" lon="4.60165">
        <ele>658.64</ele>
        <time>2018-08-08T14:52:06Z</time>
      </trkpt>
      <trkpt lat="45.09185" lon="4.60179">
        <ele>659.12</ele>
        <time>2018-08-08T14:52:21Z</time>
      </trkpt>
      <trkpt lat="45.09197" lon="4.60192">
        <ele>661.04</ele>
        <time>2018-08-08T14:52:37Z</time>
      </trkpt>
      <trkpt lat="45.09207" lon="4.60203">
        <ele>661.52</ele>
        <time>2018-08-08T14:52:51Z</time>
      </trkpt>
      <trkpt lat="45.09218" lon="4.60215">
        <ele>662.49</ele>
        <time>2018-08-08T14:53:07Z</time>
      </trkpt>
      <trkpt lat="45.09228" lon="4.60227">
        <ele>663.93</ele>
        <time>2018-08-08T14:53:21Z</time>
      </trkpt>
      <trkpt lat="45.09237" lon="4.6024">
        <ele>664.89</ele>
        <time>2018-08-08T14:53:36Z</time>
      </trkpt>
      <trkpt lat="45.09247" lon="4.60258">
        <ele>665.85</ele>
        <time>2018-08-08T14:53:53Z</time>
      </trkpt>
      <trkpt lat="45.09258" lon="4.60279">
        <ele>667.29</ele>
        <time>2018-08-08T14:54:13Z</time>
      </trkpt>
      <trkpt lat="45.09262" lon="4.60285">
        <ele>667.29</ele>
        <time>2018-08-08T14:54:19Z</time>
      </trkpt>
      <trkpt lat="45.09266" lon="4.60293">
        <ele>667.29</ele>
        <time>2018-08-08T14:54:26Z</time>
      </trkpt>
      <trkpt lat="45.09267" lon="4.60295">
        <ele>667.29</ele>
        <time>2018-08-08T14:54:28Z</time>
      </trkpt>
      <trkpt lat="45.09269" lon="4.60301">
        <ele>667.29</ele>
        <time>2018-08-08T14:54:33Z</time>
      </trkpt>
      <trkpt lat="45.09273" lon="4.60305">
        <ele>667.29</ele>
        <time>2018-08-08T14:54:38Z</time>
      </trkpt>
      <trkpt lat="45.09285" lon="4.60325">
        <ele>668.73</ele>
        <time>2018-08-08T14:54:57Z</time>
      </trkpt>
      <trkpt lat="45.09297" lon="4.6034">
        <ele>669.7</ele>
        <time>2018-08-08T14:55:13Z</time>
      </trkpt>
      <trkpt lat="45.09308" lon="4.60355">
        <ele>670.66</ele>
        <time>2018-08-08T14:55:29Z</time>
      </trkpt>
      <trkpt lat="45.09319" lon="4.60369">
        <ele>671.62</ele>
        <time>2018-08-08T14:55:45Z</time>
      </trkpt>
      <trkpt lat="45.09323" lon="4.60375">
        <ele>671.62</ele>
        <time>2018-08-08T14:55:51Z</time>
      </trkpt>
      <trkpt lat="45.09328" lon="4.60381">
        <ele>672.1</ele>
        <time>2018-08-08T14:56:08Z</time>
      </trkpt>
      <trkpt lat="45.09327" lon="4.60382">
        <ele>673.54</ele>
        <time>2018-08-08T14:56:38Z</time>
      </trkpt>
      <trkpt lat="45.09335" lon="4.6039">
        <ele>673.54</ele>
        <time>2018-08-08T14:56:52Z</time>
      </trkpt>
      <trkpt lat="45.09343" lon="4.60401">
        <ele>673.54</ele>
        <time>2018-08-08T14:57:07Z</time>
      </trkpt>
      <trkpt lat="45.09347" lon="4.60404">
        <ele>674.02</ele>
        <time>2018-08-08T14:57:25Z</time>
      </trkpt>
      <trkpt lat="45.09354" lon="4.60415">
        <ele>674.5</ele>
        <time>2018-08-08T14:57:39Z</time>
      </trkpt>
      <trkpt lat="45.09365" lon="4.60427">
        <ele>674.98</ele>
        <time>2018-08-08T14:57:55Z</time>
      </trkpt>
      <trkpt lat="45.09377" lon="4.60443">
        <ele>676.91</ele>
        <time>2018-08-08T14:58:12Z</time>
      </trkpt>
      <trkpt lat="45.09389" lon="4.60457">
        <ele>676.91</ele>
        <time>2018-08-08T14:58:28Z</time>
      </trkpt>
      <trkpt lat="45.09391" lon="4.60459">
        <ele>677.39</ele>
        <time>2018-08-08T14:58:47Z</time>
      </trkpt>
      <trkpt lat="45.09391" lon="4.60461">
        <ele>677.39</ele>
        <time>2018-08-08T14:59:15Z</time>
      </trkpt>
      <trkpt lat="45.09395" lon="4.60464">
        <ele>678.83</ele>
        <time>2018-08-08T14:59:30Z</time>
      </trkpt>
      <trkpt lat="45.09405" lon="4.60475">
        <ele>677.39</ele>
        <time>2018-08-08T14:59:45Z</time>
      </trkpt>
      <trkpt lat="45.09411" lon="4.60482">
        <ele>678.83</ele>
        <time>2018-08-08T14:59:59Z</time>
      </trkpt>
      <trkpt lat="45.09411" lon="4.60481">
        <ele>677.39</ele>
        <time>2018-08-08T15:00:25Z</time>
      </trkpt>
      <trkpt lat="45.09416" lon="4.60489">
        <ele>678.83</ele>
        <time>2018-08-08T15:00:36Z</time>
      </trkpt>
      <trkpt lat="45.09418" lon="4.60492">
        <ele>679.79</ele>
        <time>2018-08-08T15:00:54Z</time>
      </trkpt>
      <trkpt lat="45.09417" lon="4.60491">
        <ele>680.27</ele>
        <time>2018-08-08T15:01:27Z</time>
      </trkpt>
      <trkpt lat="45.09417" lon="4.60494">
        <ele>680.27</ele>
        <time>2018-08-08T15:01:48Z</time>
      </trkpt>
      <trkpt lat="45.09417" lon="4.60496">
        <ele>680.27</ele>
        <time>2018-08-08T15:02:22Z</time>
      </trkpt>
      <trkpt lat="45.09425" lon="4.60503">
        <ele>681.23</ele>
        <time>2018-08-08T15:02:35Z</time>
      </trkpt>
      <trkpt lat="45.09429" lon="4.60507">
        <ele>681.71</ele>
        <time>2018-08-08T15:02:48Z</time>
      </trkpt>
      <trkpt lat="45.09433" lon="4.60508">
        <ele>682.19</ele>
        <time>2018-08-08T15:03:10Z</time>
      </trkpt>
      <trkpt lat="45.09437" lon="4.60513">
        <ele>682.19</ele>
        <time>2018-08-08T15:03:30Z</time>
      </trkpt>
      <trkpt lat="45.0944" lon="4.60512">
        <ele>682.19</ele>
        <time>2018-08-08T15:04:01Z</time>
      </trkpt>
      <trkpt lat="45.09441" lon="4.60513">
        <ele>682.67</ele>
        <time>2018-08-08T15:04:13Z</time>
      </trkpt>
      <trkpt lat="45.0944" lon="4.60514">
        <ele>682.67</ele>
        <time>2018-08-08T15:04:41Z</time>
      </trkpt>
      <trkpt lat="45.09444" lon="4.60515">
        <ele>683.15</ele>
        <time>2018-08-08T15:05:03Z</time>
      </trkpt>
      <trkpt lat="45.09445" lon="4.60515">
        <ele>683.15</ele>
        <time>2018-08-08T15:05:22Z</time>
      </trkpt>
      <trkpt lat="45.09454" lon="4.60524">
        <ele>684.12</ele>
        <time>2018-08-08T15:05:38Z</time>
      </trkpt>
      <trkpt lat="45.09456" lon="4.60525">
        <ele>684.6</ele>
        <time>2018-08-08T15:05:55Z</time>
      </trkpt>
      <trkpt lat="45.09458" lon="4.60527">
        <ele>684.6</ele>
        <time>2018-08-08T15:06:12Z</time>
      </trkpt>
      <trkpt lat="45.09459" lon="4.60528">
        <ele>685.08</ele>
        <time>2018-08-08T15:06:29Z</time>
      </trkpt>
      <trkpt lat="45.0946" lon="4.60526">
        <ele>685.56</ele>
        <time>2018-08-08T15:06:59Z</time>
      </trkpt>
      <trkpt lat="45.0946" lon="4.60528">
        <ele>685.08</ele>
        <time>2018-08-08T15:07:27Z</time>
      </trkpt>
      <trkpt lat="45.09461" lon="4.60528">
        <ele>686.04</ele>
        <time>2018-08-08T15:07:57Z</time>
      </trkpt>
      <trkpt lat="45.09461" lon="4.60527">
        <ele>684.6</ele>
        <time>2018-08-08T15:08:28Z</time>
      </trkpt>
      <trkpt lat="45.09462" lon="4.60527">
        <ele>684.6</ele>
        <time>2018-08-08T15:08:56Z</time>
      </trkpt>
      <trkpt lat="45.09468" lon="4.60534">
        <ele>686.04</ele>
        <time>2018-08-08T15:09:09Z</time>
      </trkpt>
      <trkpt lat="45.0947" lon="4.60536">
        <ele>686.04</ele>
        <time>2018-08-08T15:09:14Z</time>
      </trkpt>
      <trkpt lat="45.09477" lon="4.60545">
        <ele>687.96</ele>
        <time>2018-08-08T15:09:28Z</time>
      </trkpt>
      <trkpt lat="45.09485" lon="4.60558">
        <ele>689.4</ele>
        <time>2018-08-08T15:09:44Z</time>
      </trkpt>
      <trkpt lat="45.09486" lon="4.60561">
        <ele>689.88</ele>
        <time>2018-08-08T15:10:05Z</time>
      </trkpt>
      <trkpt lat="45.09491" lon="4.60567">
        <ele>690.36</ele>
        <time>2018-08-08T15:10:25Z</time>
      </trkpt>
      <trkpt lat="45.09499" lon="4.60577">
        <ele>691.81</ele>
        <time>2018-08-08T15:10:38Z</time>
      </trkpt>
      <trkpt lat="45.09505" lon="4.60587">
        <ele>693.73</ele>
        <time>2018-08-08T15:10:55Z</time>
      </trkpt>
      <trkpt lat="45.09506" lon="4.60589">
        <ele>693.73</ele>
        <time>2018-08-08T15:11:15Z</time>
      </trkpt>
      <trkpt lat="45.09511" lon="4.60594">
        <ele>693.73</ele>
        <time>2018-08-08T15:11:21Z</time>
      </trkpt>
      <trkpt lat="45.09513" lon="4.60597">
        <ele>694.21</ele>
        <time>2018-08-08T15:11:24Z</time>
      </trkpt>
      <trkpt lat="45.09521" lon="4.60611">
        <ele>695.65</ele>
        <time>2018-08-08T15:11:40Z</time>
      </trkpt>
      <trkpt lat="45.09528" lon="4.6063">
        <ele>696.61</ele>
        <time>2018-08-08T15:11:57Z</time>
      </trkpt>
      <trkpt lat="45.09529" lon="4.60636">
        <ele>697.09</ele>
        <time>2018-08-08T15:12:15Z</time>
      </trkpt>
      <trkpt lat="45.09527" lon="4.60635">
        <ele>697.09</ele>
        <time>2018-08-08T15:12:42Z</time>
      </trkpt>
      <trkpt lat="45.0953" lon="4.60639">
        <ele>697.09</ele>
        <time>2018-08-08T15:12:52Z</time>
      </trkpt>
      <trkpt lat="45.09535" lon="4.60656">
        <ele>697.09</ele>
        <time>2018-08-08T15:13:09Z</time>
      </trkpt>
      <trkpt lat="45.09539" lon="4.60669">
        <ele>698.05</ele>
        <time>2018-08-08T15:13:25Z</time>
      </trkpt>
      <trkpt lat="45.09542" lon="4.60679">
        <ele>698.53</ele>
        <time>2018-08-08T15:13:45Z</time>
      </trkpt>
      <trkpt lat="45.09547" lon="4.60693">
        <ele>699.98</ele>
        <time>2018-08-08T15:14:00Z</time>
      </trkpt>
      <trkpt lat="45.09553" lon="4.60705">
        <ele>700.94</ele>
        <time>2018-08-08T15:14:14Z</time>
      </trkpt>
      <trkpt lat="45.09562" lon="4.60718">
        <ele>702.38</ele>
        <time>2018-08-08T15:14:31Z</time>
      </trkpt>
      <trkpt lat="45.09566" lon="4.60724">
        <ele>702.38</ele>
        <time>2018-08-08T15:14:47Z</time>
      </trkpt>
      <trkpt lat="45.09574" lon="4.60733">
        <ele>703.82</ele>
        <time>2018-08-08T15:15:00Z</time>
      </trkpt>
      <trkpt lat="45.09581" lon="4.60742">
        <ele>704.78</ele>
        <time>2018-08-08T15:15:11Z</time>
      </trkpt>
      <trkpt lat="45.09589" lon="4.60757">
        <ele>706.23</ele>
        <time>2018-08-08T15:15:28Z</time>
      </trkpt>
      <trkpt lat="45.09592" lon="4.60768">
        <ele>707.67</ele>
        <time>2018-08-08T15:15:45Z</time>
      </trkpt>
      <trkpt lat="45.09592" lon="4.60768">
        <ele>706.23</ele>
        <time>2018-08-08T15:15:56Z</time>
      </trkpt>
      <trkpt lat="45.09592" lon="4.60768">
        <ele>707.67</ele>
        <time>2018-08-08T15:16:00Z</time>
      </trkpt>
      <trkpt lat="45.09595" lon="4.60776">
        <ele>707.67</ele>
        <time>2018-08-08T15:16:14Z</time>
      </trkpt>
      <trkpt lat="45.09597" lon="4.6078">
        <ele>707.67</ele>
        <time>2018-08-08T15:16:18Z</time>
      </trkpt>
      <trkpt lat="45.09609" lon="4.60793">
        <ele>707.67</ele>
        <time>2018-08-08T15:16:34Z</time>
      </trkpt>
      <trkpt lat="45.09617" lon="4.60817">
        <ele>708.15</ele>
        <time>2018-08-08T15:16:53Z</time>
      </trkpt>
      <trkpt lat="45.09625" lon="4.60843">
        <ele>710.55</ele>
        <time>2018-08-08T15:17:13Z</time>
      </trkpt>
      <trkpt lat="45.09629" lon="4.60855">
        <ele>710.07</ele>
        <time>2018-08-08T15:17:26Z</time>
      </trkpt>
      <trkpt lat="45.0963" lon="4.60869">
        <ele>710.07</ele>
        <time>2018-08-08T15:17:35Z</time>
      </trkpt>
      <trkpt lat="45.09638" lon="4.60894">
        <ele>710.55</ele>
        <time>2018-08-08T15:17:54Z</time>
      </trkpt>
      <trkpt lat="45.09648" lon="4.60915">
        <ele>711.99</ele>
        <time>2018-08-08T15:18:12Z</time>
      </trkpt>
      <trkpt lat="45.09657" lon="4.60937">
        <ele>711.99</ele>
        <time>2018-08-08T15:18:30Z</time>
      </trkpt>
      <trkpt lat="45.09669" lon="4.60955">
        <ele>713.44</ele>
        <time>2018-08-08T15:18:48Z</time>
      </trkpt>
      <trkpt lat="45.09675" lon="4.60967">
        <ele>711.99</ele>
        <time>2018-08-08T15:19:06Z</time>
      </trkpt>
      <trkpt lat="45.09685" lon="4.60977">
        <ele>711.51</ele>
        <time>2018-08-08T15:19:20Z</time>
      </trkpt>
      <trkpt lat="45.09696" lon="4.60989">
        <ele>710.07</ele>
        <time>2018-08-08T15:19:36Z</time>
      </trkpt>
      <trkpt lat="45.09703" lon="4.60994">
        <ele>711.03</ele>
        <time>2018-08-08T15:19:45Z</time>
      </trkpt>
      <trkpt lat="45.09706" lon="4.60996">
        <ele>709.59</ele>
        <time>2018-08-08T15:19:49Z</time>
      </trkpt>
      <trkpt lat="45.09711" lon="4.60997">
        <ele>709.59</ele>
        <time>2018-08-08T15:20:04Z</time>
      </trkpt>
      <trkpt lat="45.09711" lon="4.60998">
        <ele>710.07</ele>
        <time>2018-08-08T15:20:30Z</time>
      </trkpt>
      <trkpt lat="45.09717" lon="4.60991">
        <ele>709.11</ele>
        <time>2018-08-08T15:20:50Z</time>
      </trkpt>
      <trkpt lat="45.09718" lon="4.60989">
        <ele>708.63</ele>
        <time>2018-08-08T15:20:59Z</time>
      </trkpt>
      <trkpt lat="45.09719" lon="4.60995">
        <ele>708.63</ele>
        <time>2018-08-08T15:21:06Z</time>
      </trkpt>
      <trkpt lat="45.09722" lon="4.60996">
        <ele>708.63</ele>
        <time>2018-08-08T15:21:23Z</time>
      </trkpt>
      <trkpt lat="45.09721" lon="4.60992">
        <ele>707.67</ele>
        <time>2018-08-08T15:21:44Z</time>
      </trkpt>
      <trkpt lat="45.0972" lon="4.60989">
        <ele>707.67</ele>
        <time>2018-08-08T15:22:01Z</time>
      </trkpt>
      <trkpt lat="45.09719" lon="4.6099">
        <ele>707.67</ele>
        <time>2018-08-08T15:22:15Z</time>
      </trkpt>
      <trkpt lat="45.09719" lon="4.6099">
        <ele>710.55</ele>
        <time>2018-08-08T15:22:36Z</time>
      </trkpt>
      <trkpt lat="45.09719" lon="4.6099">
        <ele>709.11</ele>
        <time>2018-08-08T15:23:06Z</time>
      </trkpt>
      <trkpt lat="45.09719" lon="4.6099">
        <ele>711.03</ele>
        <time>2018-08-08T15:23:18Z</time>
      </trkpt>
      <trkpt lat="45.09719" lon="4.6099">
        <ele>709.59</ele>
        <time>2018-08-08T15:23:24Z</time>
      </trkpt>
      <trkpt lat="45.09719" lon="4.60993">
        <ele>709.59</ele>
        <time>2018-08-08T15:23:44Z</time>
      </trkpt>
      <trkpt lat="45.09718" lon="4.60992">
        <ele>708.63</ele>
        <time>2018-08-08T15:24:12Z</time>
      </trkpt>
      <trkpt lat="45.09716" lon="4.60995">
        <ele>708.63</ele>
        <time>2018-08-08T15:24:31Z</time>
      </trkpt>
      <trkpt lat="45.09712" lon="4.60995">
        <ele>710.07</ele>
        <time>2018-08-08T15:24:36Z</time>
      </trkpt>
      <trkpt lat="45.09697" lon="4.6099">
        <ele>710.55</ele>
        <time>2018-08-08T15:24:54Z</time>
      </trkpt>
      <trkpt lat="45.09692" lon="4.60987">
        <ele>710.55</ele>
        <time>2018-08-08T15:25:00Z</time>
      </trkpt>
      <trkpt lat="45.09691" lon="4.60985">
        <ele>710.55</ele>
        <time>2018-08-08T15:25:02Z</time>
      </trkpt>
      <trkpt lat="45.09681" lon="4.60975">
        <ele>711.51</ele>
        <time>2018-08-08T15:25:17Z</time>
      </trkpt>
      <trkpt lat="45.09673" lon="4.60968">
        <ele>711.99</ele>
        <time>2018-08-08T15:25:33Z</time>
      </trkpt>
      <trkpt lat="45.09668" lon="4.60972">
        <ele>712.47</ele>
        <time>2018-08-08T15:25:48Z</time>
      </trkpt>
      <trkpt lat="45.09662" lon="4.60976">
        <ele>711.51</ele>
        <time>2018-08-08T15:25:56Z</time>
      </trkpt>
      <trkpt lat="45.09647" lon="4.60987">
        <ele>711.51</ele>
        <time>2018-08-08T15:26:14Z</time>
      </trkpt>
      <trkpt lat="45.0964" lon="4.60991">
        <ele>712.47</ele>
        <time>2018-08-08T15:26:23Z</time>
      </trkpt>
      <trkpt lat="45.09626" lon="4.60997">
        <ele>711.51</ele>
        <time>2018-08-08T15:26:39Z</time>
      </trkpt>
      <trkpt lat="45.09609" lon="4.60999">
        <ele>710.07</ele>
        <time>2018-08-08T15:26:57Z</time>
      </trkpt>
      <trkpt lat="45.09599" lon="4.61002">
        <ele>709.59</ele>
        <time>2018-08-08T15:27:10Z</time>
      </trkpt>
      <trkpt lat="45.09583" lon="4.61004">
        <ele>709.59</ele>
        <time>2018-08-08T15:27:27Z</time>
      </trkpt>
      <trkpt lat="45.0957" lon="4.61004">
        <ele>708.63</ele>
        <time>2018-08-08T15:27:43Z</time>
      </trkpt>
      <trkpt lat="45.09558" lon="4.61006">
        <ele>708.63</ele>
        <time>2018-08-08T15:27:59Z</time>
      </trkpt>
      <trkpt lat="45.09543" lon="4.61009">
        <ele>710.55</ele>
        <time>2018-08-08T15:28:17Z</time>
      </trkpt>
      <trkpt lat="45.09537" lon="4.61011">
        <ele>710.07</ele>
        <time>2018-08-08T15:28:32Z</time>
      </trkpt>
      <trkpt lat="45.09535" lon="4.61012">
        <ele>710.55</ele>
        <time>2018-08-08T15:28:49Z</time>
      </trkpt>
      <trkpt lat="45.09537" lon="4.61012">
        <ele>710.55</ele>
        <time>2018-08-08T15:29:08Z</time>
      </trkpt>
      <trkpt lat="45.09533" lon="4.61013">
        <ele>711.03</ele>
        <time>2018-08-08T15:29:25Z</time>
      </trkpt>
      <trkpt lat="45.09535" lon="4.61013">
        <ele>711.03</ele>
        <time>2018-08-08T15:29:43Z</time>
      </trkpt>
      <trkpt lat="45.09537" lon="4.61017">
        <ele>711.03</ele>
        <time>2018-08-08T15:29:56Z</time>
      </trkpt>
      <trkpt lat="45.09527" lon="4.61021">
        <ele>712.47</ele>
        <time>2018-08-08T15:30:11Z</time>
      </trkpt>
      <trkpt lat="45.09521" lon="4.61024">
        <ele>712.95</ele>
        <time>2018-08-08T15:30:20Z</time>
      </trkpt>
      <trkpt lat="45.09509" lon="4.6103">
        <ele>713.92</ele>
        <time>2018-08-08T15:30:35Z</time>
      </trkpt>
      <trkpt lat="45.09503" lon="4.61036">
        <ele>715.36</ele>
        <time>2018-08-08T15:30:47Z</time>
      </trkpt>
      <trkpt lat="45.09495" lon="4.61042">
        <ele>716.32</ele>
        <time>2018-08-08T15:31:02Z</time>
      </trkpt>
      <trkpt lat="45.09486" lon="4.6105">
        <ele>717.28</ele>
        <time>2018-08-08T15:31:17Z</time>
      </trkpt>
      <trkpt lat="45.09477" lon="4.6106">
        <ele>718.72</ele>
        <time>2018-08-08T15:31:31Z</time>
      </trkpt>
      <trkpt lat="45.09472" lon="4.61065">
        <ele>719.68</ele>
        <time>2018-08-08T15:31:43Z</time>
      </trkpt>
      <trkpt lat="45.09464" lon="4.61077">
        <ele>720.16</ele>
        <time>2018-08-08T15:31:58Z</time>
      </trkpt>
      <trkpt lat="45.09465" lon="4.61079">
        <ele>721.13</ele>
        <time>2018-08-08T15:32:10Z</time>
      </trkpt>
      <trkpt lat="45.09473" lon="4.61082">
        <ele>722.57</ele>
        <time>2018-08-08T15:32:26Z</time>
      </trkpt>
      <trkpt lat="45.09483" lon="4.61083">
        <ele>724.01</ele>
        <time>2018-08-08T15:32:44Z</time>
      </trkpt>
      <trkpt lat="45.09496" lon="4.61089">
        <ele>725.93</ele>
        <time>2018-08-08T15:33:03Z</time>
      </trkpt>
      <trkpt lat="45.09505" lon="4.61089">
        <ele>725.93</ele>
        <time>2018-08-08T15:33:18Z</time>
      </trkpt>
      <trkpt lat="45.09515" lon="4.61096">
        <ele>728.34</ele>
        <time>2018-08-08T15:33:33Z</time>
      </trkpt>
      <trkpt lat="45.09528" lon="4.61099">
        <ele>728.82</ele>
        <time>2018-08-08T15:33:49Z</time>
      </trkpt>
      <trkpt lat="45.09538" lon="4.61101">
        <ele>729.78</ele>
        <time>2018-08-08T15:34:04Z</time>
      </trkpt>
      <trkpt lat="45.09541" lon="4.61101">
        <ele>729.78</ele>
        <time>2018-08-08T15:34:09Z</time>
      </trkpt>
      <trkpt lat="45.09548" lon="4.61102">
        <ele>729.78</ele>
        <time>2018-08-08T15:34:23Z</time>
      </trkpt>
      <trkpt lat="45.0955" lon="4.61102">
        <ele>730.74</ele>
        <time>2018-08-08T15:34:39Z</time>
      </trkpt>
      <trkpt lat="45.09561" lon="4.61103">
        <ele>730.74</ele>
        <time>2018-08-08T15:34:53Z</time>
      </trkpt>
      <trkpt lat="45.09573" lon="4.61104">
        <ele>730.74</ele>
        <time>2018-08-08T15:35:09Z</time>
      </trkpt>
      <trkpt lat="45.0959" lon="4.61103">
        <ele>730.74</ele>
        <time>2018-08-08T15:35:27Z</time>
      </trkpt>
      <trkpt lat="45.09602" lon="4.61104">
        <ele>732.18</ele>
        <time>2018-08-08T15:35:41Z</time>
      </trkpt>
      <trkpt lat="45.09615" lon="4.61102">
        <ele>732.18</ele>
        <time>2018-08-08T15:35:56Z</time>
      </trkpt>
      <trkpt lat="45.09624" lon="4.61103">
        <ele>732.18</ele>
        <time>2018-08-08T15:36:10Z</time>
      </trkpt>
      <trkpt lat="45.09633" lon="4.61106">
        <ele>732.18</ele>
        <time>2018-08-08T15:36:28Z</time>
      </trkpt>
      <trkpt lat="45.09641" lon="4.61113">
        <ele>732.18</ele>
        <time>2018-08-08T15:36:44Z</time>
      </trkpt>
      <trkpt lat="45.09648" lon="4.61116">
        <ele>730.74</ele>
        <time>2018-08-08T15:36:59Z</time>
      </trkpt>
      <trkpt lat="45.09653" lon="4.61119">
        <ele>730.26</ele>
        <time>2018-08-08T15:37:15Z</time>
      </trkpt>
      <trkpt lat="45.09658" lon="4.61122">
        <ele>729.78</ele>
        <time>2018-08-08T15:37:34Z</time>
      </trkpt>
      <trkpt lat="45.09662" lon="4.61133">
        <ele>730.74</ele>
        <time>2018-08-08T15:37:50Z</time>
      </trkpt>
      <trkpt lat="45.09664" lon="4.61139">
        <ele>731.7</ele>
        <time>2018-08-08T15:38:14Z</time>
      </trkpt>
      <trkpt lat="45.09666" lon="4.61149">
        <ele>732.18</ele>
        <time>2018-08-08T15:38:28Z</time>
      </trkpt>
      <trkpt lat="45.09667" lon="4.61162">
        <ele>733.14</ele>
        <time>2018-08-08T15:38:44Z</time>
      </trkpt>
      <trkpt lat="45.09669" lon="4.61172">
        <ele>733.62</ele>
        <time>2018-08-08T15:38:59Z</time>
      </trkpt>
      <trkpt lat="45.09669" lon="4.61189">
        <ele>735.07</ele>
        <time>2018-08-08T15:39:15Z</time>
      </trkpt>
      <trkpt lat="45.09668" lon="4.61202">
        <ele>736.51</ele>
        <time>2018-08-08T15:39:32Z</time>
      </trkpt>
      <trkpt lat="45.09662" lon="4.61215">
        <ele>738.43</ele>
        <time>2018-08-08T15:39:49Z</time>
      </trkpt>
      <trkpt lat="45.09658" lon="4.61231">
        <ele>740.83</ele>
        <time>2018-08-08T15:40:08Z</time>
      </trkpt>
      <trkpt lat="45.09659" lon="4.61239">
        <ele>741.31</ele>
        <time>2018-08-08T15:40:24Z</time>
      </trkpt>
      <trkpt lat="45.09659" lon="4.61251">
        <ele>740.35</ele>
        <time>2018-08-08T15:40:40Z</time>
      </trkpt>
      <trkpt lat="45.09662" lon="4.61265">
        <ele>739.39</ele>
        <time>2018-08-08T15:40:57Z</time>
      </trkpt>
      <trkpt lat="45.09665" lon="4.6127">
        <ele>738.43</ele>
        <time>2018-08-08T15:41:12Z</time>
      </trkpt>
      <trkpt lat="45.09671" lon="4.61274">
        <ele>737.47</ele>
        <time>2018-08-08T15:41:27Z</time>
      </trkpt>
      <trkpt lat="45.09674" lon="4.6129">
        <ele>736.51</ele>
        <time>2018-08-08T15:41:42Z</time>
      </trkpt>
      <trkpt lat="45.09672" lon="4.61301">
        <ele>736.51</ele>
        <time>2018-08-08T15:42:00Z</time>
      </trkpt>
      <trkpt lat="45.09674" lon="4.61318">
        <ele>735.55</ele>
        <time>2018-08-08T15:42:16Z</time>
      </trkpt>
      <trkpt lat="45.09674" lon="4.61331">
        <ele>734.58</ele>
        <time>2018-08-08T15:42:30Z</time>
      </trkpt>
      <trkpt lat="45.09677" lon="4.61346">
        <ele>732.18</ele>
        <time>2018-08-08T15:42:48Z</time>
      </trkpt>
      <trkpt lat="45.09681" lon="4.61359">
        <ele>730.74</ele>
        <time>2018-08-08T15:43:03Z</time>
      </trkpt>
      <trkpt lat="45.09687" lon="4.61373">
        <ele>728.34</ele>
        <time>2018-08-08T15:43:19Z</time>
      </trkpt>
      <trkpt lat="45.09696" lon="4.61376">
        <ele>726.41</ele>
        <time>2018-08-08T15:43:38Z</time>
      </trkpt>
      <trkpt lat="45.09699" lon="4.61371">
        <ele>725.45</ele>
        <time>2018-08-08T15:43:55Z</time>
      </trkpt>
      <trkpt lat="45.09707" lon="4.61364">
        <ele>724.01</ele>
        <time>2018-08-08T15:44:12Z</time>
      </trkpt>
      <trkpt lat="45.09718" lon="4.61359">
        <ele>721.13</ele>
        <time>2018-08-08T15:44:29Z</time>
      </trkpt>
      <trkpt lat="45.09729" lon="4.61358">
        <ele>718.72</ele>
        <time>2018-08-08T15:44:45Z</time>
      </trkpt>
      <trkpt lat="45.09734" lon="4.61361">
        <ele>717.76</ele>
        <time>2018-08-08T15:45:00Z</time>
      </trkpt>
      <trkpt lat="45.09736" lon="4.61362">
        <ele>717.28</ele>
        <time>2018-08-08T15:45:19Z</time>
      </trkpt>
      <trkpt lat="45.09735" lon="4.61367">
        <ele>719.2</ele>
        <time>2018-08-08T15:45:39Z</time>
      </trkpt>
      <trkpt lat="45.09733" lon="4.6137">
        <ele>717.76</ele>
        <time>2018-08-08T15:45:51Z</time>
      </trkpt>
      <trkpt lat="45.09734" lon="4.61371">
        <ele>716.8</ele>
        <time>2018-08-08T15:46:06Z</time>
      </trkpt>
      <trkpt lat="45.09736" lon="4.61376">
        <ele>716.8</ele>
        <time>2018-08-08T15:46:26Z</time>
      </trkpt>
      <trkpt lat="45.09739" lon="4.61367">
        <ele>716.8</ele>
        <time>2018-08-08T15:46:42Z</time>
      </trkpt>
      <trkpt lat="45.09743" lon="4.61356">
        <ele>715.36</ele>
        <time>2018-08-08T15:46:58Z</time>
      </trkpt>
      <trkpt lat="45.09747" lon="4.61343">
        <ele>714.88</ele>
        <time>2018-08-08T15:47:11Z</time>
      </trkpt>
      <trkpt lat="45.09755" lon="4.61323">
        <ele>712.95</ele>
        <time>2018-08-08T15:47:30Z</time>
      </trkpt>
      <trkpt lat="45.09758" lon="4.61307">
        <ele>711.51</ele>
        <time>2018-08-08T15:47:44Z</time>
      </trkpt>
      <trkpt lat="45.0976" lon="4.61283">
        <ele>710.55</ele>
        <time>2018-08-08T15:48:03Z</time>
      </trkpt>
      <trkpt lat="45.09766" lon="4.6126">
        <ele>709.11</ele>
        <time>2018-08-08T15:48:22Z</time>
      </trkpt>
      <trkpt lat="45.09767" lon="4.61242">
        <ele>707.19</ele>
        <time>2018-08-08T15:48:39Z</time>
      </trkpt>
      <trkpt lat="45.09771" lon="4.61236">
        <ele>707.19</ele>
        <time>2018-08-08T15:48:56Z</time>
      </trkpt>
      <trkpt lat="45.0977" lon="4.61235">
        <ele>706.71</ele>
        <time>2018-08-08T15:49:22Z</time>
      </trkpt>
      <trkpt lat="45.09771" lon="4.61233">
        <ele>707.19</ele>
        <time>2018-08-08T15:49:35Z</time>
      </trkpt>
      <trkpt lat="45.09772" lon="4.61227">
        <ele>707.19</ele>
        <time>2018-08-08T15:49:52Z</time>
      </trkpt>
      <trkpt lat="45.0977" lon="4.61226">
        <ele>707.19</ele>
        <time>2018-08-08T15:50:19Z</time>
      </trkpt>
      <trkpt lat="45.09769" lon="4.61219">
        <ele>707.19</ele>
        <time>2018-08-08T15:50:42Z</time>
      </trkpt>
      <trkpt lat="45.09763" lon="4.61199">
        <ele>707.19</ele>
        <time>2018-08-08T15:51:00Z</time>
      </trkpt>
      <trkpt lat="45.09763" lon="4.61198">
        <ele>707.19</ele>
        <time>2018-08-08T15:51:01Z</time>
      </trkpt>
      <trkpt lat="45.09762" lon="4.61189">
        <ele>708.15</ele>
        <time>2018-08-08T15:51:07Z</time>
      </trkpt>
      <trkpt lat="45.09754" lon="4.61173">
        <ele>708.15</ele>
        <time>2018-08-08T15:51:22Z</time>
      </trkpt>
      <trkpt lat="45.09748" lon="4.61152">
        <ele>708.15</ele>
        <time>2018-08-08T15:51:38Z</time>
      </trkpt>
      <trkpt lat="45.09743" lon="4.6114">
        <ele>708.15</ele>
        <time>2018-08-08T15:51:50Z</time>
      </trkpt>
      <trkpt lat="45.09742" lon="4.61137">
        <ele>708.15</ele>
        <time>2018-08-08T15:51:52Z</time>
      </trkpt>
      <trkpt lat="45.09734" lon="4.61114">
        <ele>708.15</ele>
        <time>2018-08-08T15:52:12Z</time>
      </trkpt>
      <trkpt lat="45.09724" lon="4.61097">
        <ele>708.63</ele>
        <time>2018-08-08T15:52:30Z</time>
      </trkpt>
      <trkpt lat="45.09718" lon="4.61074">
        <ele>709.59</ele>
        <time>2018-08-08T15:52:45Z</time>
      </trkpt>
      <trkpt lat="45.09715" lon="4.61041">
        <ele>710.07</ele>
        <time>2018-08-08T15:53:03Z</time>
      </trkpt>
      <trkpt lat="45.09715" lon="4.61022">
        <ele>711.51</ele>
        <time>2018-08-08T15:53:24Z</time>
      </trkpt>
      <trkpt lat="45.09709" lon="4.61006">
        <ele>713.44</ele>
        <time>2018-08-08T15:53:42Z</time>
      </trkpt>
      <trkpt lat="45.09708" lon="4.61005">
        <ele>713.44</ele>
        <time>2018-08-08T15:53:43Z</time>
      </trkpt>
      <trkpt lat="45.09698" lon="4.60996">
        <ele>714.88</ele>
        <time>2018-08-08T15:53:59Z</time>
      </trkpt>
      <trkpt lat="45.09686" lon="4.60985">
        <ele>716.32</ele>
        <time>2018-08-08T15:54:15Z</time>
      </trkpt>
      <trkpt lat="45.0969" lon="4.60978">
        <ele>715.84</ele>
        <time>2018-08-08T15:54:31Z</time>
      </trkpt>
      <trkpt lat="45.0969" lon="4.60977">
        <ele>714.88</ele>
        <time>2018-08-08T15:55:05Z</time>
      </trkpt>
      <trkpt lat="45.0969" lon="4.60977">
        <ele>714.88</ele>
        <time>2018-08-08T15:55:15Z</time>
      </trkpt>
      <trkpt lat="45.09685" lon="4.60975">
        <ele>716.32</ele>
        <time>2018-08-08T15:55:47Z</time>
      </trkpt>
      <trkpt lat="45.09684" lon="4.60973">
        <ele>717.28</ele>
        <time>2018-08-08T15:55:54Z</time>
      </trkpt>
      <trkpt lat="45.0969" lon="4.60977">
        <ele>715.84</ele>
        <time>2018-08-08T15:56:00Z</time>
      </trkpt>
      <trkpt lat="45.09693" lon="4.6098">
        <ele>715.36</ele>
        <time>2018-08-08T15:56:15Z</time>
      </trkpt>
      <trkpt lat="45.09693" lon="4.60981">
        <ele>716.32</ele>
        <time>2018-08-08T15:56:34Z</time>
      </trkpt>
      <trkpt lat="45.09692" lon="4.60982">
        <ele>715.36</ele>
        <time>2018-08-08T15:56:38Z</time>
      </trkpt>
      <trkpt lat="45.09692" lon="4.60982">
        <ele>716.32</ele>
        <time>2018-08-08T15:56:41Z</time>
      </trkpt>
      <trkpt lat="45.09693" lon="4.60981">
        <ele>716.32</ele>
        <time>2018-08-08T15:56:54Z</time>
      </trkpt>
      <trkpt lat="45.09693" lon="4.60982">
        <ele>714.88</ele>
        <time>2018-08-08T15:56:59Z</time>
      </trkpt>
      <trkpt lat="45.09693" lon="4.60981">
        <ele>715.84</ele>
        <time>2018-08-08T15:57:04Z</time>
      </trkpt>
      <trkpt lat="45.09693" lon="4.6098">
        <ele>714.4</ele>
        <time>2018-08-08T15:57:13Z</time>
      </trkpt>
      <trkpt lat="45.09692" lon="4.60983">
        <ele>715.84</ele>
        <time>2018-08-08T15:57:23Z</time>
      </trkpt>
      <trkpt lat="45.09692" lon="4.60984">
        <ele>714.4</ele>
        <time>2018-08-08T15:57:31Z</time>
      </trkpt>
      <trkpt lat="45.09691" lon="4.60986">
        <ele>714.4</ele>
        <time>2018-08-08T15:57:54Z</time>
      </trkpt>
      <trkpt lat="45.0969" lon="4.60989">
        <ele>714.4</ele>
        <time>2018-08-08T15:58:24Z</time>
      </trkpt>
      <trkpt lat="45.0969" lon="4.60986">
        <ele>714.4</ele>
        <time>2018-08-08T15:58:59Z</time>
      </trkpt>
      <trkpt lat="45.0969" lon="4.60983">
        <ele>713.92</ele>
        <time>2018-08-08T15:59:28Z</time>
      </trkpt>
      <trkpt lat="45.0969" lon="4.60984">
        <ele>713.92</ele>
        <time>2018-08-08T15:59:58Z</time>
      </trkpt>
      <trkpt lat="45.09689" lon="4.60985">
        <ele>712.95</ele>
        <time>2018-08-08T16:00:27Z</time>
      </trkpt>
      <trkpt lat="45.09691" lon="4.60983">
        <ele>712.95</ele>
        <time>2018-08-08T16:00:54Z</time>
      </trkpt>
      <trkpt lat="45.0969" lon="4.60983">
        <ele>712.95</ele>
        <time>2018-08-08T16:01:16Z</time>
      </trkpt>
      <trkpt lat="45.0969" lon="4.60983">
        <ele>713.92</ele>
        <time>2018-08-08T16:01:41Z</time>
      </trkpt>
      <trkpt lat="45.09689" lon="4.60979">
        <ele>713.92</ele>
        <time>2018-08-08T16:01:58Z</time>
      </trkpt>
      <trkpt lat="45.09691" lon="4.60977">
        <ele>712.95</ele>
        <time>2018-08-08T16:02:32Z</time>
      </trkpt>
      <trkpt lat="45.09691" lon="4.60978">
        <ele>712.95</ele>
        <time>2018-08-08T16:03:04Z</time>
      </trkpt>
      <trkpt lat="45.09691" lon="4.60978">
        <ele>712.95</ele>
        <time>2018-08-08T16:03:35Z</time>
      </trkpt>
      <trkpt lat="45.0969" lon="4.60974">
        <ele>711.99</ele>
        <time>2018-08-08T16:04:10Z</time>
      </trkpt>
      <trkpt lat="45.09689" lon="4.60973">
        <ele>711.99</ele>
        <time>2018-08-08T16:04:35Z</time>
      </trkpt>
      <trkpt lat="45.09689" lon="4.60974">
        <ele>712.95</ele>
        <time>2018-08-08T16:05:11Z</time>
      </trkpt>
      <trkpt lat="45.09688" lon="4.60976">
        <ele>712.95</ele>
        <time>2018-08-08T16:05:44Z</time>
      </trkpt>
      <trkpt lat="45.09689" lon="4.60977">
        <ele>711.51</ele>
        <time>2018-08-08T16:06:10Z</time>
      </trkpt>
      <trkpt lat="45.09688" lon="4.60975">
        <ele>711.51</ele>
        <time>2018-08-08T16:06:37Z</time>
      </trkpt>
      <trkpt lat="45.09688" lon="4.60975">
        <ele>711.03</ele>
        <time>2018-08-08T16:06:48Z</time>
      </trkpt>
      <trkpt lat="45.09688" lon="4.60975">
        <ele>712.47</ele>
        <time>2018-08-08T16:06:52Z</time>
      </trkpt>
      <trkpt lat="45.09689" lon="4.60976">
        <ele>713.44</ele>
        <time>2018-08-08T16:07:24Z</time>
      </trkpt>
      <trkpt lat="45.0969" lon="4.60976">
        <ele>713.44</ele>
        <time>2018-08-08T16:07:58Z</time>
      </trkpt>
      <trkpt lat="45.0969" lon="4.60976">
        <ele>713.44</ele>
        <time>2018-08-08T16:08:27Z</time>
      </trkpt>
      <trkpt lat="45.0969" lon="4.60976">
        <ele>713.92</ele>
        <time>2018-08-08T16:09:04Z</time>
      </trkpt>
      <trkpt lat="45.0969" lon="4.60976">
        <ele>711.99</ele>
        <time>2018-08-08T16:09:07Z</time>
      </trkpt>
      <trkpt lat="45.09689" lon="4.60975">
        <ele>713.44</ele>
        <time>2018-08-08T16:09:25Z</time>
      </trkpt>
      <trkpt lat="45.0969" lon="4.60975">
        <ele>713.92</ele>
        <time>2018-08-08T16:10:05Z</time>
      </trkpt>
      <trkpt lat="45.09688" lon="4.60978">
        <ele>713.92</ele>
        <time>2018-08-08T16:10:32Z</time>
      </trkpt>
      <trkpt lat="45.09677" lon="4.6097">
        <ele>714.4</ele>
        <time>2018-08-08T16:10:47Z</time>
      </trkpt>
      <trkpt lat="45.09674" lon="4.60965">
        <ele>714.88</ele>
        <time>2018-08-08T16:10:53Z</time>
      </trkpt>
      <trkpt lat="45.09662" lon="4.60946">
        <ele>714.4</ele>
        <time>2018-08-08T16:11:10Z</time>
      </trkpt>
      <trkpt lat="45.09651" lon="4.60925">
        <ele>714.4</ele>
        <time>2018-08-08T16:11:28Z</time>
      </trkpt>
      <trkpt lat="45.09641" lon="4.60901">
        <ele>713.44</ele>
        <time>2018-08-08T16:11:47Z</time>
      </trkpt>
      <trkpt lat="45.09636" lon="4.60886">
        <ele>714.88</ele>
        <time>2018-08-08T16:11:58Z</time>
      </trkpt>
      <trkpt lat="45.09633" lon="4.60879">
        <ele>713.44</ele>
        <time>2018-08-08T16:12:03Z</time>
      </trkpt>
      <trkpt lat="45.09625" lon="4.60847">
        <ele>711.99</ele>
        <time>2018-08-08T16:12:25Z</time>
      </trkpt>
      <trkpt lat="45.09625" lon="4.60836">
        <ele>711.51</ele>
        <time>2018-08-08T16:12:41Z</time>
      </trkpt>
      <trkpt lat="45.09626" lon="4.60837">
        <ele>711.51</ele>
        <time>2018-08-08T16:12:59Z</time>
      </trkpt>
      <trkpt lat="45.09625" lon="4.60836">
        <ele>711.51</ele>
        <time>2018-08-08T16:13:28Z</time>
      </trkpt>
      <trkpt lat="45.09626" lon="4.60836">
        <ele>711.51</ele>
        <time>2018-08-08T16:14:01Z</time>
      </trkpt>
      <trkpt lat="45.09625" lon="4.60834">
        <ele>711.51</ele>
        <time>2018-08-08T16:14:28Z</time>
      </trkpt>
      <trkpt lat="45.09625" lon="4.60833">
        <ele>711.51</ele>
        <time>2018-08-08T16:14:59Z</time>
      </trkpt>
      <trkpt lat="45.09625" lon="4.60832">
        <ele>712.95</ele>
        <time>2018-08-08T16:15:22Z</time>
      </trkpt>
      <trkpt lat="45.09622" lon="4.60829">
        <ele>712.95</ele>
        <time>2018-08-08T16:15:39Z</time>
      </trkpt>
      <trkpt lat="45.09617" lon="4.60812">
        <ele>711.51</ele>
        <time>2018-08-08T16:15:54Z</time>
      </trkpt>
      <trkpt lat="45.09611" lon="4.6079">
        <ele>711.51</ele>
        <time>2018-08-08T16:16:11Z</time>
      </trkpt>
      <trkpt lat="45.09605" lon="4.60778">
        <ele>711.03</ele>
        <time>2018-08-08T16:16:23Z</time>
      </trkpt>
      <trkpt lat="45.09594" lon="4.60773">
        <ele>711.03</ele>
        <time>2018-08-08T16:16:34Z</time>
      </trkpt>
      <trkpt lat="45.09593" lon="4.60769">
        <ele>711.99</ele>
        <time>2018-08-08T16:16:38Z</time>
      </trkpt>
      <trkpt lat="45.0959" lon="4.60763">
        <ele>710.55</ele>
        <time>2018-08-08T16:16:43Z</time>
      </trkpt>
      <trkpt lat="45.09581" lon="4.60748">
        <ele>709.11</ele>
        <time>2018-08-08T16:16:59Z</time>
      </trkpt>
      <trkpt lat="45.09581" lon="4.60749">
        <ele>708.63</ele>
        <time>2018-08-08T16:17:23Z</time>
      </trkpt>
      <trkpt lat="45.09576" lon="4.60741">
        <ele>707.19</ele>
        <time>2018-08-08T16:17:43Z</time>
      </trkpt>
      <trkpt lat="45.09577" lon="4.60741">
        <ele>708.15</ele>
        <time>2018-08-08T16:17:49Z</time>
      </trkpt>
      <trkpt lat="45.09577" lon="4.6074">
        <ele>706.71</ele>
        <time>2018-08-08T16:17:53Z</time>
      </trkpt>
      <trkpt lat="45.09574" lon="4.60737">
        <ele>707.67</ele>
        <time>2018-08-08T16:18:11Z</time>
      </trkpt>
      <trkpt lat="45.09578" lon="4.60736">
        <ele>707.67</ele>
        <time>2018-08-08T16:18:28Z</time>
      </trkpt>
      <trkpt lat="45.09579" lon="4.60735">
        <ele>707.67</ele>
        <time>2018-08-08T16:18:54Z</time>
      </trkpt>
      <trkpt lat="45.09583" lon="4.60739">
        <ele>708.15</ele>
        <time>2018-08-08T16:19:10Z</time>
      </trkpt>
      <trkpt lat="45.09579" lon="4.60739">
        <ele>708.63</ele>
        <time>2018-08-08T16:19:33Z</time>
      </trkpt>
      <trkpt lat="45.09578" lon="4.60737">
        <ele>707.19</ele>
        <time>2018-08-08T16:19:37Z</time>
      </trkpt>
      <trkpt lat="45.09576" lon="4.60738">
        <ele>707.19</ele>
        <time>2018-08-08T16:19:57Z</time>
      </trkpt>
      <trkpt lat="45.09575" lon="4.60734">
        <ele>707.19</ele>
        <time>2018-08-08T16:20:17Z</time>
      </trkpt>
      <trkpt lat="45.09565" lon="4.60726">
        <ele>705.26</ele>
        <time>2018-08-08T16:20:31Z</time>
      </trkpt>
      <trkpt lat="45.0956" lon="4.60721">
        <ele>704.78</ele>
        <time>2018-08-08T16:20:47Z</time>
      </trkpt>
      <trkpt lat="45.0955" lon="4.60709">
        <ele>703.82</ele>
        <time>2018-08-08T16:21:03Z</time>
      </trkpt>
      <trkpt lat="45.09542" lon="4.60687">
        <ele>702.38</ele>
        <time>2018-08-08T16:21:19Z</time>
      </trkpt>
      <trkpt lat="45.09536" lon="4.60665">
        <ele>701.9</ele>
        <time>2018-08-08T16:21:36Z</time>
      </trkpt>
      <trkpt lat="45.09529" lon="4.6064">
        <ele>700.94</ele>
        <time>2018-08-08T16:21:56Z</time>
      </trkpt>
      <trkpt lat="45.09522" lon="4.60619">
        <ele>699.02</ele>
        <time>2018-08-08T16:22:13Z</time>
      </trkpt>
      <trkpt lat="45.09509" lon="4.60596">
        <ele>697.57</ele>
        <time>2018-08-08T16:22:33Z</time>
      </trkpt>
      <trkpt lat="45.09502" lon="4.60584">
        <ele>695.17</ele>
        <time>2018-08-08T16:22:52Z</time>
      </trkpt>
      <trkpt lat="45.095" lon="4.6058">
        <ele>695.17</ele>
        <time>2018-08-08T16:23:00Z</time>
      </trkpt>
      <trkpt lat="45.09487" lon="4.60563">
        <ele>693.25</ele>
        <time>2018-08-08T16:23:16Z</time>
      </trkpt>
      <trkpt lat="45.09475" lon="4.60549">
        <ele>691.33</ele>
        <time>2018-08-08T16:23:37Z</time>
      </trkpt>
      <trkpt lat="45.09474" lon="4.60546">
        <ele>690.84</ele>
        <time>2018-08-08T16:23:59Z</time>
      </trkpt>
      <trkpt lat="45.09461" lon="4.60536">
        <ele>688.92</ele>
        <time>2018-08-08T16:24:20Z</time>
      </trkpt>
      <trkpt lat="45.09455" lon="4.60531">
        <ele>688.92</ele>
        <time>2018-08-08T16:24:38Z</time>
      </trkpt>
      <trkpt lat="45.09446" lon="4.60526">
        <ele>686.04</ele>
        <time>2018-08-08T16:24:54Z</time>
      </trkpt>
      <trkpt lat="45.09446" lon="4.60525">
        <ele>687.48</ele>
        <time>2018-08-08T16:24:57Z</time>
      </trkpt>
      <trkpt lat="45.09436" lon="4.60518">
        <ele>687</ele>
        <time>2018-08-08T16:25:11Z</time>
      </trkpt>
      <trkpt lat="45.09432" lon="4.60515">
        <ele>686.04</ele>
        <time>2018-08-08T16:25:17Z</time>
      </trkpt>
      <trkpt lat="45.09418" lon="4.60499">
        <ele>684.6</ele>
        <time>2018-08-08T16:25:35Z</time>
      </trkpt>
      <trkpt lat="45.09413" lon="4.6049">
        <ele>684.12</ele>
        <time>2018-08-08T16:25:48Z</time>
      </trkpt>
      <trkpt lat="45.09404" lon="4.60482">
        <ele>682.19</ele>
        <time>2018-08-08T16:26:02Z</time>
      </trkpt>
      <trkpt lat="45.09401" lon="4.60476">
        <ele>681.71</ele>
        <time>2018-08-08T16:26:36Z</time>
      </trkpt>
      <trkpt lat="45.09398" lon="4.60473">
        <ele>681.71</ele>
        <time>2018-08-08T16:26:55Z</time>
      </trkpt>
      <trkpt lat="45.09388" lon="4.60461">
        <ele>681.23</ele>
        <time>2018-08-08T16:27:09Z</time>
      </trkpt>
      <trkpt lat="45.09379" lon="4.6045">
        <ele>681.23</ele>
        <time>2018-08-08T16:27:25Z</time>
      </trkpt>
      <trkpt lat="45.09379" lon="4.60444">
        <ele>679.79</ele>
        <time>2018-08-08T16:27:47Z</time>
      </trkpt>
      <trkpt lat="45.09379" lon="4.60443">
        <ele>681.23</ele>
        <time>2018-08-08T16:27:52Z</time>
      </trkpt>
      <trkpt lat="45.09365" lon="4.60431">
        <ele>680.27</ele>
        <time>2018-08-08T16:28:10Z</time>
      </trkpt>
      <trkpt lat="45.09356" lon="4.60421">
        <ele>678.35</ele>
        <time>2018-08-08T16:28:27Z</time>
      </trkpt>
      <trkpt lat="45.09355" lon="4.60419">
        <ele>678.35</ele>
        <time>2018-08-08T16:28:29Z</time>
      </trkpt>
      <trkpt lat="45.09341" lon="4.60402">
        <ele>677.87</ele>
        <time>2018-08-08T16:28:47Z</time>
      </trkpt>
      <trkpt lat="45.09326" lon="4.60384">
        <ele>676.91</ele>
        <time>2018-08-08T16:29:06Z</time>
      </trkpt>
      <trkpt lat="45.09313" lon="4.60369">
        <ele>676.42</ele>
        <time>2018-08-08T16:29:24Z</time>
      </trkpt>
      <trkpt lat="45.09311" lon="4.60367">
        <ele>676.42</ele>
        <time>2018-08-08T16:29:26Z</time>
      </trkpt>
      <trkpt lat="45.09305" lon="4.60359">
        <ele>678.83</ele>
        <time>2018-08-08T16:29:33Z</time>
      </trkpt>
      <trkpt lat="45.09303" lon="4.60356">
        <ele>675.94</ele>
        <time>2018-08-08T16:29:36Z</time>
      </trkpt>
      <trkpt lat="45.09287" lon="4.60332">
        <ele>673.54</ele>
        <time>2018-08-08T16:29:57Z</time>
      </trkpt>
      <trkpt lat="45.09274" lon="4.60311">
        <ele>672.58</ele>
        <time>2018-08-08T16:30:15Z</time>
      </trkpt>
      <trkpt lat="45.09269" lon="4.60301">
        <ele>672.1</ele>
        <time>2018-08-08T16:30:23Z</time>
      </trkpt>
      <trkpt lat="45.09267" lon="4.60298">
        <ele>673.54</ele>
        <time>2018-08-08T16:30:26Z</time>
      </trkpt>
      <trkpt lat="45.09255" lon="4.60276">
        <ele>671.14</ele>
        <time>2018-08-08T16:30:45Z</time>
      </trkpt>
      <trkpt lat="45.09253" lon="4.60273">
        <ele>671.14</ele>
        <time>2018-08-08T16:30:48Z</time>
      </trkpt>
      <trkpt lat="45.09252" lon="4.6027">
        <ele>672.58</ele>
        <time>2018-08-08T16:30:50Z</time>
      </trkpt>
      <trkpt lat="45.09235" lon="4.60248">
        <ele>670.66</ele>
        <time>2018-08-08T16:31:11Z</time>
      </trkpt>
      <trkpt lat="45.09218" lon="4.60225">
        <ele>668.25</ele>
        <time>2018-08-08T16:31:33Z</time>
      </trkpt>
      <trkpt lat="45.09212" lon="4.60217">
        <ele>667.77</ele>
        <time>2018-08-08T16:31:46Z</time>
      </trkpt>
      <trkpt lat="45.09203" lon="4.60208">
        <ele>666.33</ele>
        <time>2018-08-08T16:32:01Z</time>
      </trkpt>
      <trkpt lat="45.09187" lon="4.6019">
        <ele>664.89</ele>
        <time>2018-08-08T16:32:20Z</time>
      </trkpt>
      <trkpt lat="45.09174" lon="4.60171">
        <ele>662.49</ele>
        <time>2018-08-08T16:32:39Z</time>
      </trkpt>
      <trkpt lat="45.09162" lon="4.60153">
        <ele>660.56</ele>
        <time>2018-08-08T16:32:56Z</time>
      </trkpt>
      <trkpt lat="45.09149" lon="4.6013">
        <ele>657.68</ele>
        <time>2018-08-08T16:33:17Z</time>
      </trkpt>
      <trkpt lat="45.09143" lon="4.60111">
        <ele>657.2</ele>
        <time>2018-08-08T16:33:33Z</time>
      </trkpt>
      <trkpt lat="45.09144" lon="4.6009">
        <ele>656.72</ele>
        <time>2018-08-08T16:33:46Z</time>
      </trkpt>
      <trkpt lat="45.09147" lon="4.60065">
        <ele>656.24</ele>
        <time>2018-08-08T16:34:03Z</time>
      </trkpt>
      <trkpt lat="45.09152" lon="4.60038">
        <ele>655.28</ele>
        <time>2018-08-08T16:34:18Z</time>
      </trkpt>
      <trkpt lat="45.09164" lon="4.60012">
        <ele>653.35</ele>
        <time>2018-08-08T16:34:37Z</time>
      </trkpt>
      <trkpt lat="45.09169" lon="4.59992">
        <ele>650.47</ele>
        <time>2018-08-08T16:34:58Z</time>
      </trkpt>
      <trkpt lat="45.09165" lon="4.59987">
        <ele>649.51</ele>
        <time>2018-08-08T16:35:05Z</time>
      </trkpt>
      <trkpt lat="45.09151" lon="4.59987">
        <ele>647.59</ele>
        <time>2018-08-08T16:35:25Z</time>
      </trkpt>
      <trkpt lat="45.09138" lon="4.59991">
        <ele>644.7</ele>
        <time>2018-08-08T16:35:45Z</time>
      </trkpt>
      <trkpt lat="45.09123" lon="4.59998">
        <ele>642.78</ele>
        <time>2018-08-08T16:36:02Z</time>
      </trkpt>
      <trkpt lat="45.09107" lon="4.60012">
        <ele>641.34</ele>
        <time>2018-08-08T16:36:22Z</time>
      </trkpt>
      <trkpt lat="45.09105" lon="4.60018">
        <ele>640.38</ele>
        <time>2018-08-08T16:36:28Z</time>
      </trkpt>
      <trkpt lat="45.09099" lon="4.60035">
        <ele>637.97</ele>
        <time>2018-08-08T16:36:45Z</time>
      </trkpt>
      <trkpt lat="45.09096" lon="4.60056">
        <ele>635.57</ele>
        <time>2018-08-08T16:37:03Z</time>
      </trkpt>
      <trkpt lat="45.0909" lon="4.60075">
        <ele>633.65</ele>
        <time>2018-08-08T16:37:19Z</time>
      </trkpt>
      <trkpt lat="45.09085" lon="4.60075">
        <ele>632.68</ele>
        <time>2018-08-08T16:37:24Z</time>
      </trkpt>
      <trkpt lat="45.09079" lon="4.6006">
        <ele>630.28</ele>
        <time>2018-08-08T16:37:37Z</time>
      </trkpt>
      <trkpt lat="45.09072" lon="4.60035">
        <ele>627.88</ele>
        <time>2018-08-08T16:37:55Z</time>
      </trkpt>
      <trkpt lat="45.09066" lon="4.60013">
        <ele>626.92</ele>
        <time>2018-08-08T16:38:10Z</time>
      </trkpt>
      <trkpt lat="45.09059" lon="4.59996">
        <ele>625.47</ele>
        <time>2018-08-08T16:38:26Z</time>
      </trkpt>
      <trkpt lat="45.09052" lon="4.59977">
        <ele>624.03</ele>
        <time>2018-08-08T16:38:44Z</time>
      </trkpt>
      <trkpt lat="45.09051" lon="4.5997">
        <ele>623.07</ele>
        <time>2018-08-08T16:38:50Z</time>
      </trkpt>
      <trkpt lat="45.09045" lon="4.59951">
        <ele>621.63</ele>
        <time>2018-08-08T16:39:07Z</time>
      </trkpt>
      <trkpt lat="45.0904" lon="4.59936">
        <ele>620.19</ele>
        <time>2018-08-08T16:39:22Z</time>
      </trkpt>
      <trkpt lat="45.09034" lon="4.59917">
        <ele>618.75</ele>
        <time>2018-08-08T16:39:43Z</time>
      </trkpt>
      <trkpt lat="45.0903" lon="4.59904">
        <ele>617.3</ele>
        <time>2018-08-08T16:40:05Z</time>
      </trkpt>
      <trkpt lat="45.09026" lon="4.59888">
        <ele>615.38</ele>
        <time>2018-08-08T16:40:18Z</time>
      </trkpt>
      <trkpt lat="45.09023" lon="4.59867">
        <ele>612.98</ele>
        <time>2018-08-08T16:40:36Z</time>
      </trkpt>
      <trkpt lat="45.09028" lon="4.5985">
        <ele>609.61</ele>
        <time>2018-08-08T16:40:51Z</time>
      </trkpt>
      <trkpt lat="45.09029" lon="4.59849">
        <ele>611.06</ele>
        <time>2018-08-08T16:40:53Z</time>
      </trkpt>
      <trkpt lat="45.09031" lon="4.59847">
        <ele>611.06</ele>
        <time>2018-08-08T16:40:55Z</time>
      </trkpt>
      <trkpt lat="45.09048" lon="4.59833">
        <ele>608.17</ele>
        <time>2018-08-08T16:41:13Z</time>
      </trkpt>
      <trkpt lat="45.09061" lon="4.59822">
        <ele>606.25</ele>
        <time>2018-08-08T16:41:30Z</time>
      </trkpt>
      <trkpt lat="45.09073" lon="4.59811">
        <ele>603.85</ele>
        <time>2018-08-08T16:41:46Z</time>
      </trkpt>
      <trkpt lat="45.09088" lon="4.59803">
        <ele>601.92</ele>
        <time>2018-08-08T16:42:03Z</time>
      </trkpt>
      <trkpt lat="45.09098" lon="4.59792">
        <ele>600.96</ele>
        <time>2018-08-08T16:42:18Z</time>
      </trkpt>
      <trkpt lat="45.09098" lon="4.59785">
        <ele>600.96</ele>
        <time>2018-08-08T16:42:26Z</time>
      </trkpt>
      <trkpt lat="45.09083" lon="4.59771">
        <ele>602.4</ele>
        <time>2018-08-08T16:42:45Z</time>
      </trkpt>
      <trkpt lat="45.09071" lon="4.59767">
        <ele>602.88</ele>
        <time>2018-08-08T16:43:00Z</time>
      </trkpt>
      <trkpt lat="45.09054" lon="4.59759">
        <ele>602.88</ele>
        <time>2018-08-08T16:43:18Z</time>
      </trkpt>
      <trkpt lat="45.09041" lon="4.59755">
        <ele>602.88</ele>
        <time>2018-08-08T16:43:32Z</time>
      </trkpt>
      <trkpt lat="45.09034" lon="4.59751">
        <ele>602.4</ele>
        <time>2018-08-08T16:43:39Z</time>
      </trkpt>
      <trkpt lat="45.09016" lon="4.59745">
        <ele>602.4</ele>
        <time>2018-08-08T16:43:56Z</time>
      </trkpt>
      <trkpt lat="45.08997" lon="4.59746">
        <ele>601.44</ele>
        <time>2018-08-08T16:44:14Z</time>
      </trkpt>
      <trkpt lat="45.08978" lon="4.59743">
        <ele>600.96</ele>
        <time>2018-08-08T16:44:31Z</time>
      </trkpt>
      <trkpt lat="45.08959" lon="4.59745">
        <ele>600.48</ele>
        <time>2018-08-08T16:44:51Z</time>
      </trkpt>
      <trkpt lat="45.08955" lon="4.59748">
        <ele>600.48</ele>
        <time>2018-08-08T16:44:56Z</time>
      </trkpt>
      <trkpt lat="45.0894" lon="4.59749">
        <ele>601.92</ele>
        <time>2018-08-08T16:45:13Z</time>
      </trkpt>
      <trkpt lat="45.08912" lon="4.59747">
        <ele>602.4</ele>
        <time>2018-08-08T16:45:36Z</time>
      </trkpt>
      <trkpt lat="45.08894" lon="4.59749">
        <ele>604.33</ele>
        <time>2018-08-08T16:45:56Z</time>
      </trkpt>
      <trkpt lat="45.08885" lon="4.5975">
        <ele>604.81</ele>
        <time>2018-08-08T16:46:03Z</time>
      </trkpt>
      <trkpt lat="45.08871" lon="4.59753">
        <ele>604.81</ele>
        <time>2018-08-08T16:46:17Z</time>
      </trkpt>
      <trkpt lat="45.08866" lon="4.59752">
        <ele>604.33</ele>
        <time>2018-08-08T16:46:22Z</time>
      </trkpt>
      <trkpt lat="45.08863" lon="4.5975">
        <ele>603.36</ele>
        <time>2018-08-08T16:46:24Z</time>
      </trkpt>
      <trkpt lat="45.08844" lon="4.59739">
        <ele>600.96</ele>
        <time>2018-08-08T16:46:44Z</time>
      </trkpt>
      <trkpt lat="45.08837" lon="4.5973">
        <ele>600.48</ele>
        <time>2018-08-08T16:46:53Z</time>
      </trkpt>
      <trkpt lat="45.08835" lon="4.59726">
        <ele>599.52</ele>
        <time>2018-08-08T16:46:57Z</time>
      </trkpt>
      <trkpt lat="45.08828" lon="4.59703">
        <ele>597.12</ele>
        <time>2018-08-08T16:47:15Z</time>
      </trkpt>
      <trkpt lat="45.08821" lon="4.59679">
        <ele>594.71</ele>
        <time>2018-08-08T16:47:34Z</time>
      </trkpt>
      <trkpt lat="45.08816" lon="4.59657">
        <ele>593.27</ele>
        <time>2018-08-08T16:47:52Z</time>
      </trkpt>
      <trkpt lat="45.08815" lon="4.59648">
        <ele>593.27</ele>
        <time>2018-08-08T16:48:00Z</time>
      </trkpt>
      <trkpt lat="45.08808" lon="4.59624">
        <ele>593.27</ele>
        <time>2018-08-08T16:48:18Z</time>
      </trkpt>
      <trkpt lat="45.08808" lon="4.59618">
        <ele>594.71</ele>
        <time>2018-08-08T16:48:24Z</time>
      </trkpt>
      <trkpt lat="45.0881" lon="4.59614">
        <ele>595.19</ele>
        <time>2018-08-08T16:48:40Z</time>
      </trkpt>
      <trkpt lat="45.08811" lon="4.59614">
        <ele>595.19</ele>
        <time>2018-08-08T16:49:02Z</time>
      </trkpt>
      <trkpt lat="45.08811" lon="4.59615">
        <ele>595.19</ele>
        <time>2018-08-08T16:49:24Z</time>
      </trkpt>
      <trkpt lat="45.0881" lon="4.59614">
        <ele>595.19</ele>
        <time>2018-08-08T16:49:43Z</time>
      </trkpt>
      <trkpt lat="45.08813" lon="4.59613">
        <ele>593.75</ele>
        <time>2018-08-08T16:49:58Z</time>
      </trkpt>
      <trkpt lat="45.08813" lon="4.59612">
        <ele>596.64</ele>
        <time>2018-08-08T16:50:01Z</time>
      </trkpt>
      <trkpt lat="45.08813" lon="4.59608">
        <ele>596.64</ele>
        <time>2018-08-08T16:50:10Z</time>
      </trkpt>
      <trkpt lat="45.08807" lon="4.59604">
        <ele>597.6</ele>
        <time>2018-08-08T16:50:26Z</time>
      </trkpt>
      <trkpt lat="45.08807" lon="4.59602">
        <ele>597.6</ele>
        <time>2018-08-08T16:50:47Z</time>
      </trkpt>
      <trkpt lat="45.08807" lon="4.59602">
        <ele>597.6</ele>
        <time>2018-08-08T16:51:02Z</time>
      </trkpt>
      <trkpt lat="45.08809" lon="4.59601">
        <ele>598.08</ele>
        <time>2018-08-08T16:51:14Z</time>
      </trkpt>
      <trkpt lat="45.08808" lon="4.59601">
        <ele>596.64</ele>
        <time>2018-08-08T16:51:16Z</time>
      </trkpt>
      <trkpt lat="45.08808" lon="4.59601">
        <ele>596.64</ele>
        <time>2018-08-08T16:51:38Z</time>
      </trkpt>
      <trkpt lat="45.08808" lon="4.59599">
        <ele>597.6</ele>
        <time>2018-08-08T16:52:13Z</time>
      </trkpt>
      <trkpt lat="45.08808" lon="4.59603">
        <ele>597.6</ele>
        <time>2018-08-08T16:52:46Z</time>
      </trkpt>
      <trkpt lat="45.08807" lon="4.59603">
        <ele>597.6</ele>
        <time>2018-08-08T16:53:18Z</time>
      </trkpt>
      <trkpt lat="45.08807" lon="4.59602">
        <ele>595.67</ele>
        <time>2018-08-08T16:53:27Z</time>
      </trkpt>
      <trkpt lat="45.08808" lon="4.59602">
        <ele>597.12</ele>
        <time>2018-08-08T16:53:29Z</time>
      </trkpt>
      <trkpt lat="45.08807" lon="4.596">
        <ele>597.6</ele>
        <time>2018-08-08T16:53:56Z</time>
      </trkpt>
      <trkpt lat="45.08807" lon="4.596">
        <ele>597.6</ele>
        <time>2018-08-08T16:54:22Z</time>
      </trkpt>
    </trkseg>
  </trk>
</gpx>